Main page
METAR-TAF:

METAR-TAF

Airports :

San Sebastián Airport

San Sebastián, Spain

latitude: 43-21N, longitude: 001-48W, elevation: 5 m

Current weather observation

The report was made 28 minutes ago, at 21:30 UTC
Wind 3 kt from the South/Southwest, varying between South/Southeast and Southwest
Temperature 11°C
Humidity 94%
Pressure 1021 hPa
Visibility 10 km or more

METAR: LESO 212130Z AUTO 20003KT 160V220 9999 NCD 11/10 Q1021

Time: 23:58 (21:58 UTC)

Forecast

The report was made 4 hours and 58 minutes ago, at 17:00 UTC
Forecast valid from 21 at 18 UTC to 22 at 18 UTC
Wind 4 kt from variable directions
Visibility 10 km or more
Scattered clouds at a height of 4000 ft
Temporary
from 22 at 12 UTC to 22 at 18 UTC
Wind 10 kt from the North
Visibility: 3000 m
Broken clouds at a height of 1000 ft
rain

TAF: LESO 211700Z 2118/2218 VRB04KT 9999 SCT040 TX15/2214Z TN08/2206Z TEMPO 2212/2218 01010KT 3000 RA BKN010

Weather observations and forecasts of more than 4000 airports (METAR and TAF reports).

The available stations are represented by yellow and red dots on the map.

Hover mouse over dot to see the name of the station.

Then click to see weather observations and forecasts.

To change the map : click on the green buttons with a black cross to zoom in, on the green button with a dash to zoom out, or on the green arrows for adjacent maps.


METAR-TAF: